createdAt,value
2022-09-14T00:01:27.091Z,5.45
2022-09-14T00:03:56.665Z,5.18
2022-09-14T00:06:24.171Z,5.18
2022-09-14T00:08:53.126Z,5.43
2022-09-14T00:11:21.914Z,5.05
2022-09-14T00:13:49.289Z,4.72
2022-09-14T00:16:21.196Z,5.20
2022-09-14T00:19:06.155Z,5.38
2022-09-14T00:21:35.649Z,4.60
2022-09-14T00:24:03.870Z,4.75
2022-09-14T00:26:30.879Z,4.80
2022-09-14T00:28:59.266Z,4.80
2022-09-14T00:31:27.012Z,4.40
2022-09-14T00:33:54.378Z,4.32
2022-09-14T00:36:25.428Z,4.60
2022-09-14T00:38:55.245Z,4.63
2022-09-14T00:41:25.318Z,4.60
2022-09-14T00:43:58.248Z,4.32
2022-09-14T00:46:27.899Z,4.70
2022-09-14T00:48:58.877Z,4.70
2022-09-14T00:51:26.764Z,4.68
2022-09-14T00:53:54.175Z,4.55
2022-09-14T00:56:21.901Z,4.55
2022-09-14T00:58:51.629Z,4.80
2022-09-14T01:01:19.257Z,4.72
2022-09-14T01:03:46.431Z,4.60
2022-09-14T01:06:28.577Z,5.15
2022-09-14T01:09:27.732Z,4.80
2022-09-14T01:11:57.845Z,4.80
2022-09-14T01:14:44.374Z,5.05
2022-09-14T01:17:39.216Z,4.88
2022-09-14T01:20:09.212Z,4.30
2022-09-14T01:22:50.517Z,5.00
2022-09-14T01:25:36.022Z,4.97
2022-09-14T01:28:10.919Z,5.15
2022-09-14T01:30:41.747Z,5.22
2022-09-14T01:33:24.340Z,5.30
2022-09-14T01:35:58.576Z,5.55
2022-09-14T01:38:32.568Z,4.70
2022-09-14T01:41:03.789Z,5.70
2022-09-14T01:43:45.178Z,6.13
2022-09-14T01:46:25.968Z,5.65
2022-09-14T01:49:02.555Z,6.30
2022-09-14T01:54:18.776Z,6.00
2022-09-14T01:56:53.995Z,6.68
2022-09-14T01:59:28.269Z,6.75
2022-09-14T02:02:04.961Z,6.38
2022-09-14T02:05:06.099Z,6.75
2022-09-14T02:07:34.215Z,6.60
2022-09-14T02:10:03.813Z,7.72
2022-09-14T02:12:31.158Z,7.40
2022-09-14T02:14:58.364Z,6.82
2022-09-14T02:17:25.350Z,7.20
2022-09-14T02:20:02.108Z,6.95
2022-09-14T02:22:31.578Z,7.32
2022-09-14T02:24:59.014Z,7.70
2022-09-14T02:27:26.549Z,7.43
2022-09-14T02:29:54.103Z,7.68
2022-09-14T02:32:45.415Z,7.75
2022-09-14T02:35:24.531Z,6.15
2022-09-14T02:37:54.506Z,6.97
2022-09-14T02:40:39.177Z,6.82
2022-09-14T02:43:06.081Z,6.97
2022-09-14T02:45:45.372Z,6.75
2022-09-14T02:48:15.163Z,6.38
2022-09-14T02:51:00.673Z,6.80
2022-09-14T02:53:27.598Z,6.43
2022-09-14T02:56:00.287Z,6.65
2022-09-14T02:58:35.252Z,5.70
2022-09-14T03:01:03.405Z,6.30
2022-09-14T03:03:35.342Z,5.70
2022-09-14T03:06:03.470Z,6.30
2022-09-14T03:08:30.594Z,6.32
2022-09-14T03:10:57.617Z,5.88
2022-09-14T03:13:24.957Z,6.47
2022-09-14T03:15:52.179Z,5.95
2022-09-14T03:18:19.632Z,6.93
2022-09-14T03:20:46.875Z,6.82
2022-09-14T03:23:14.005Z,7.00
2022-09-14T03:25:43.974Z,6.88
2022-09-14T03:28:12.628Z,6.18
2022-09-14T03:30:40.201Z,7.00
2022-09-14T03:33:07.195Z,6.93
2022-09-14T03:35:34.851Z,7.35
2022-09-14T03:38:03.370Z,6.75
2022-09-14T03:40:30.942Z,7.82
2022-09-14T03:42:58.329Z,7.03
2022-09-14T03:45:25.717Z,7.13
2022-09-14T03:47:52.700Z,7.13
2022-09-14T03:50:20.069Z,6.63
2022-09-14T03:52:47.355Z,6.70
2022-09-14T03:55:14.613Z,7.15
2022-09-14T03:57:41.690Z,6.43
2022-09-14T04:00:09.216Z,7.00
2022-09-14T04:02:40.403Z,7.68
2022-09-14T04:05:07.676Z,6.85
2022-09-14T04:07:35.532Z,6.85
2022-09-14T04:10:02.548Z,7.07
2022-09-14T04:12:34.665Z,6.78
2022-09-14T04:15:02.108Z,6.28
2022-09-14T04:17:30.150Z,7.32
2022-09-14T04:19:57.066Z,7.38
2022-09-14T04:22:24.153Z,6.85
2022-09-14T04:24:51.167Z,7.78
2022-09-14T04:27:18.100Z,7.55
2022-09-14T04:29:45.511Z,6.60
2022-09-14T04:32:12.546Z,7.88
2022-09-14T04:34:39.442Z,8.32
2022-09-14T04:37:06.325Z,8.45
2022-09-14T04:39:33.246Z,7.95
2022-09-14T04:42:00.147Z,7.93
2022-09-14T04:44:27.222Z,8.30
2022-09-14T04:46:55.091Z,7.60
2022-09-14T04:49:22.326Z,8.45
2022-09-14T04:51:49.431Z,8.45
2022-09-14T04:54:18.087Z,8.40
2022-09-14T04:56:45.605Z,7.70
2022-09-14T04:59:12.803Z,7.88
2022-09-14T05:01:42.646Z,8.10
2022-09-14T05:04:11.292Z,7.95
2022-09-14T05:06:39.850Z,7.95
2022-09-14T05:09:13.713Z,7.53
2022-09-14T05:11:41.593Z,5.95
2022-09-14T05:14:11.596Z,6.28
2022-09-14T05:16:40.007Z,6.80
2022-09-14T05:19:11.226Z,6.55
2022-09-14T05:21:38.479Z,6.53
2022-09-14T05:24:18.904Z,6.72
2022-09-14T05:26:46.775Z,7.65
2022-09-14T05:29:16.037Z,6.78
2022-09-14T05:31:43.268Z,7.57
2022-09-14T05:34:11.418Z,7.25
2022-09-14T05:36:39.993Z,7.68
2022-09-14T05:39:08.101Z,7.80
2022-09-14T05:41:35.077Z,8.25
2022-09-14T05:44:02.236Z,8.25
2022-09-14T05:46:29.292Z,8.50
2022-09-14T05:48:56.296Z,8.38
2022-09-14T05:51:25.904Z,8.32
2022-09-14T05:53:55.501Z,9.07
2022-09-14T05:56:24.157Z,10.70
2022-09-14T05:58:51.689Z,9.32
2022-09-14T06:01:25.005Z,9.98
2022-09-14T06:03:57.149Z,9.70
2022-09-14T06:06:24.858Z,10.45
2022-09-14T06:08:54.260Z,10.43
2022-09-14T06:11:28.569Z,11.00
2022-09-14T06:13:57.033Z,9.02
2022-09-14T06:16:25.987Z,9.60
2022-09-14T06:18:55.584Z,9.85
2022-09-14T06:21:23.031Z,10.15
2022-09-14T06:23:51.085Z,10.43
2022-09-14T06:26:18.281Z,11.18
2022-09-14T06:28:46.028Z,10.20
2022-09-14T06:31:18.091Z,11.15
2022-09-14T06:33:46.782Z,11.52
2022-09-14T06:36:18.148Z,9.40
2022-09-14T06:38:47.172Z,11.23
2022-09-14T06:41:18.340Z,9.90
2022-09-14T06:43:46.104Z,10.15
2022-09-14T06:46:13.813Z,10.05
2022-09-14T06:48:47.661Z,9.27
2022-09-14T06:51:25.777Z,8.48
2022-09-14T06:53:54.066Z,9.15
2022-09-14T06:56:21.492Z,7.45
2022-09-14T06:58:50.182Z,8.52
2022-09-14T07:01:19.938Z,7.90
2022-09-14T07:03:47.656Z,7.30
2022-09-14T07:06:17.480Z,7.38
2022-09-14T07:08:44.752Z,7.57
2022-09-14T07:11:13.264Z,7.22
2022-09-14T07:13:40.662Z,7.32
2022-09-14T07:16:09.080Z,8.43
2022-09-14T07:18:36.655Z,7.82
2022-09-14T07:21:07.848Z,8.00
2022-09-14T07:23:37.080Z,7.97
2022-09-14T07:26:10.985Z,8.75
2022-09-14T07:28:39.306Z,8.07
2022-09-14T07:31:21.815Z,7.78
2022-09-14T07:33:52.473Z,8.85
2022-09-14T07:36:19.771Z,9.50
2022-09-14T07:38:52.503Z,9.10
2022-09-14T07:41:25.519Z,9.23
2022-09-14T07:43:54.447Z,9.63
2022-09-14T07:46:21.946Z,8.43
2022-09-14T07:48:54.226Z,8.32
2022-09-14T07:51:21.290Z,9.40
2022-09-14T07:53:48.405Z,9.10
2022-09-14T07:56:17.018Z,8.48
2022-09-14T07:58:44.662Z,9.15
2022-09-14T08:01:15.367Z,14.55
2022-09-14T08:03:44.349Z,10.23
2022-09-14T08:06:19.198Z,9.15
2022-09-14T08:08:48.227Z,9.40
2022-09-14T08:11:22.460Z,9.95
2022-09-14T08:13:56.852Z,8.93
2022-09-14T08:16:26.079Z,8.10
2022-09-14T08:18:55.667Z,8.68
2022-09-14T08:21:23.144Z,9.35
2022-09-14T08:23:50.588Z,8.70
2022-09-14T08:26:20.240Z,7.75
2022-09-14T08:28:48.611Z,7.88
2022-09-14T08:31:19.002Z,7.82
2022-09-14T08:33:50.536Z,8.02
2022-09-14T08:36:20.457Z,7.35
2022-09-14T08:38:47.896Z,6.13
2022-09-14T08:41:34.564Z,6.80
2022-09-14T08:44:10.322Z,7.43
2022-09-14T08:46:49.213Z,7.32
2022-09-14T08:49:21.931Z,7.65
2022-09-14T08:51:51.253Z,8.75
2022-09-14T08:54:18.801Z,9.02
2022-09-14T08:56:49.360Z,8.65
2022-09-14T08:59:50.188Z,8.27
2022-09-14T09:02:29.143Z,6.93
2022-09-14T09:05:22.303Z,7.90
2022-09-14T09:07:53.899Z,8.25
2022-09-14T09:10:21.296Z,8.02
2022-09-14T09:12:52.514Z,8.93
2022-09-14T09:15:34.245Z,8.30
2022-09-14T09:18:42.849Z,8.48
2022-09-14T09:21:12.797Z,8.32
2022-09-14T09:23:41.201Z,8.40
2022-09-14T09:26:22.764Z,9.13
2022-09-14T09:28:52.536Z,8.50
2022-09-14T09:31:33.892Z,10.32
2022-09-14T09:34:29.635Z,8.95
2022-09-14T09:37:22.701Z,8.98
2022-09-14T09:39:50.622Z,8.27
2022-09-14T09:42:26.572Z,9.13
2022-09-14T09:45:01.820Z,8.10
2022-09-14T09:47:34.945Z,8.43
2022-09-14T09:50:18.553Z,6.93
2022-09-14T09:52:51.388Z,7.53
2022-09-14T09:55:23.828Z,7.28
2022-09-14T09:57:50.825Z,7.38
2022-09-14T10:00:22.941Z,7.63
2022-09-14T10:02:50.750Z,8.10
2022-09-14T10:05:17.627Z,7.28
2022-09-14T10:07:56.015Z,7.47
2022-09-14T10:10:43.295Z,6.43
2022-09-14T10:13:29.778Z,6.68
2022-09-14T10:21:02.729Z,5.93
2022-09-14T10:23:33.573Z,5.25
2022-09-14T10:26:12.847Z,5.72
2022-09-14T10:28:43.977Z,5.43
2022-09-14T10:31:19.792Z,5.57
2022-09-14T10:33:54.381Z,6.18
2022-09-14T10:36:33.084Z,5.65
2022-09-14T10:39:37.755Z,5.72
2022-09-14T10:42:27.596Z,6.10
2022-09-14T10:45:25.100Z,5.85
2022-09-14T10:47:54.931Z,5.35
2022-09-14T10:50:41.361Z,4.95
2022-09-14T10:53:23.333Z,5.22
2022-09-14T10:56:23.823Z,5.13
2022-09-14T10:58:53.939Z,4.63
2022-09-14T11:01:41.158Z,5.00
2022-09-14T11:05:03.515Z,4.80
2022-09-14T11:07:54.295Z,4.53
2022-09-14T11:10:51.798Z,5.05
2022-09-14T11:16:27.807Z,5.47
2022-09-14T11:19:01.198Z,6.13
2022-09-14T11:21:28.128Z,6.03
2022-09-14T11:24:19.681Z,6.60
2022-09-14T11:27:03.455Z,6.18
2022-09-14T11:29:48.475Z,5.38
2022-09-14T11:32:29.969Z,6.00
2022-09-14T11:35:04.501Z,5.82
2022-09-14T11:37:57.312Z,5.10
2022-09-14T11:41:22.709Z,5.78
2022-09-14T11:43:56.791Z,5.07
2022-09-14T11:46:45.136Z,5.80
2022-09-14T11:49:18.963Z,5.50
2022-09-14T11:52:22.523Z,5.20
2022-09-14T11:54:51.551Z,9.27
2022-09-14T11:57:26.808Z,6.75
2022-09-14T11:59:56.526Z,5.23
2022-09-14T12:02:23.455Z,5.50
2022-09-14T12:05:06.039Z,5.18
2022-09-14T12:07:48.369Z,5.25
2022-09-14T12:10:18.287Z,5.68
2022-09-14T12:12:55.817Z,5.47
2022-09-14T12:15:26.258Z,5.15
2022-09-14T12:18:14.928Z,5.20
2022-09-14T12:20:44.184Z,5.50
2022-09-14T12:23:21.120Z,7.35
2022-09-14T12:26:10.969Z,4.95
2022-09-14T12:28:37.860Z,4.88
2022-09-14T12:31:04.842Z,5.43
2022-09-14T12:33:34.433Z,5.90
2022-09-14T12:36:07.192Z,5.18
2022-09-14T12:38:37.153Z,5.45
2022-09-14T12:41:12.993Z,6.22
2022-09-14T12:43:39.909Z,5.60
2022-09-14T12:46:22.146Z,5.40
2022-09-14T12:48:55.925Z,5.22
2022-09-14T12:51:31.851Z,4.93
2022-09-14T12:54:01.313Z,5.38
2022-09-14T12:56:37.150Z,5.25
2022-09-14T12:59:41.914Z,5.93
2022-09-14T13:02:27.960Z,5.43
2022-09-14T13:04:58.249Z,5.10
2022-09-14T13:07:32.105Z,5.40
2022-09-14T13:10:02.114Z,4.40
2022-09-14T13:12:52.026Z,5.50
2022-09-14T13:15:26.512Z,4.88
2022-09-14T13:18:03.403Z,4.53
2022-09-14T13:20:33.723Z,4.28
2022-09-14T13:23:02.215Z,4.90
2022-09-14T13:25:38.441Z,4.40
2022-09-14T13:28:13.705Z,5.00
2022-09-14T13:30:44.526Z,4.50
2022-09-14T13:33:18.408Z,4.22
2022-09-14T13:35:55.156Z,4.45
2022-09-14T13:38:29.988Z,4.53
2022-09-14T13:41:08.541Z,4.70
2022-09-14T13:43:35.779Z,5.25
2022-09-14T13:46:08.178Z,4.25
2022-09-14T13:48:40.178Z,4.60
2022-09-14T13:51:08.897Z,4.60
2022-09-14T13:53:51.154Z,4.80
2022-09-14T13:56:25.251Z,4.97
2022-09-14T13:59:19.617Z,4.22
2022-09-14T14:01:46.690Z,4.80
2022-09-14T14:04:34.884Z,5.03
2022-09-14T14:07:07.428Z,5.05
2022-09-14T14:09:43.456Z,5.15
2022-09-14T14:12:12.557Z,6.15
2022-09-14T14:14:39.741Z,5.10
2022-09-14T14:17:32.969Z,4.88
2022-09-14T14:20:21.199Z,5.30
2022-09-14T14:23:02.695Z,5.43
2022-09-14T14:25:52.164Z,5.43
2022-09-14T14:28:30.373Z,5.75
2022-09-14T14:30:59.570Z,5.63
2022-09-14T14:33:26.764Z,5.45
2022-09-14T14:35:56.482Z,6.28
2022-09-14T14:38:25.182Z,6.13
2022-09-14T14:40:58.374Z,6.28
2022-09-14T14:43:26.620Z,5.85
2022-09-14T14:46:02.836Z,5.70
2022-09-14T14:55:51.617Z,7.80
2022-09-14T14:58:20.177Z,6.40
2022-09-14T15:00:47.904Z,5.95
2022-09-14T15:03:15.740Z,6.70
2022-09-14T15:05:44.549Z,6.22
2022-09-14T15:08:13.565Z,6.88
2022-09-14T15:10:41.310Z,5.72
2022-09-14T15:13:10.403Z,6.50
2022-09-14T15:15:40.949Z,6.13
2022-09-14T15:18:07.865Z,6.00
2022-09-14T15:20:35.324Z,6.63
2022-09-14T15:23:02.301Z,7.00
2022-09-14T15:25:29.339Z,7.10
2022-09-14T15:27:56.556Z,6.28
2022-09-14T15:30:23.461Z,6.78
2022-09-14T15:32:50.413Z,6.25
2022-09-14T15:35:17.346Z,6.57
2022-09-14T15:37:44.399Z,6.75
2022-09-14T15:40:12.095Z,6.53
2022-09-14T15:42:39.278Z,6.85
2022-09-14T15:45:07.013Z,6.40
2022-09-14T15:47:36.423Z,6.80
2022-09-14T15:50:04.829Z,6.60
2022-09-14T15:52:34.270Z,6.68
2022-09-14T15:55:01.151Z,6.50
2022-09-14T15:57:28.464Z,6.43
2022-09-14T15:59:55.632Z,6.07
2022-09-14T16:02:22.631Z,6.55
2022-09-14T16:04:49.564Z,6.28
2022-09-14T16:07:16.643Z,7.35
2022-09-14T16:09:43.632Z,7.45
2022-09-14T16:12:14.110Z,6.47
2022-09-14T16:14:41.436Z,6.38
2022-09-14T16:17:09.211Z,6.63
2022-09-14T16:19:36.219Z,6.13
2022-09-14T16:22:04.253Z,6.15
2022-09-14T16:24:31.935Z,5.90
2022-09-14T16:26:59.481Z,6.68
2022-09-14T16:29:26.732Z,6.55
2022-09-14T16:31:54.121Z,6.70
2022-09-14T16:34:24.901Z,6.80
2022-09-14T16:36:52.425Z,7.30
2022-09-14T16:39:25.308Z,7.13
2022-09-14T16:41:55.795Z,7.35
2022-09-14T16:44:27.228Z,7.35
2022-09-14T16:46:57.649Z,7.53
2022-09-14T16:49:27.517Z,8.07
2022-09-14T16:51:56.495Z,8.40
2022-09-14T16:54:25.608Z,7.60
2022-09-14T16:56:57.151Z,8.48
2022-09-14T16:59:24.584Z,8.48
2022-09-14T17:01:54.727Z,8.07
2022-09-14T17:04:23.322Z,9.55
2022-09-14T17:06:52.013Z,9.63
2022-09-14T17:09:21.613Z,8.50
2022-09-14T17:11:48.932Z,9.32
2022-09-14T17:14:19.213Z,10.50
2022-09-14T17:16:47.113Z,9.63
2022-09-14T17:19:15.124Z,10.68
2022-09-14T17:21:43.946Z,10.07
2022-09-14T17:24:11.678Z,10.98
2022-09-14T17:26:38.782Z,10.07
2022-09-14T17:29:07.111Z,11.25
2022-09-14T17:31:38.212Z,11.45
2022-09-14T17:34:07.296Z,10.20
2022-09-14T17:36:34.593Z,10.98
2022-09-14T17:39:06.793Z,10.82
2022-09-14T17:41:39.183Z,11.18
2022-09-14T17:44:07.660Z,11.35
2022-09-14T17:46:37.399Z,10.75
2022-09-14T17:49:08.778Z,11.07
2022-09-14T17:51:37.369Z,11.73
2022-09-14T17:54:04.496Z,11.88
2022-09-14T17:56:31.974Z,11.35
2022-09-14T17:59:07.845Z,12.05
2022-09-14T18:01:35.024Z,11.57
2022-09-14T18:04:05.321Z,11.88
2022-09-14T18:06:38.607Z,11.32
2022-09-14T18:09:09.348Z,11.70
2022-09-14T18:11:36.589Z,12.20
2022-09-14T18:14:04.815Z,12.63
2022-09-14T18:16:32.602Z,12.85
2022-09-14T18:18:59.906Z,13.50
2022-09-14T18:21:27.465Z,13.90
2022-09-14T18:23:55.468Z,13.85
2022-09-14T18:26:24.557Z,13.77
2022-09-14T18:28:56.060Z,13.75
2022-09-14T18:31:23.993Z,14.75
2022-09-14T18:33:56.146Z,14.50
2022-09-14T18:36:23.000Z,14.95
2022-09-14T18:38:51.515Z,15.43
2022-09-14T18:41:19.137Z,15.57
2022-09-14T18:43:48.929Z,14.68
2022-09-14T18:46:16.643Z,14.82
2022-09-14T18:48:44.839Z,15.98
2022-09-14T18:51:14.033Z,16.35
2022-09-14T18:53:42.058Z,16.58
2022-09-14T18:56:11.659Z,16.58
2022-09-14T18:58:44.725Z,15.80
2022-09-14T19:01:13.202Z,16.33
2022-09-14T19:03:41.684Z,16.52
2022-09-14T19:06:11.631Z,16.67
2022-09-14T19:08:38.747Z,17.40
2022-09-14T19:11:07.228Z,17.63
2022-09-14T19:13:34.264Z,17.05
2022-09-14T19:16:06.174Z,16.90
2022-09-14T19:18:33.869Z,16.50
2022-09-14T19:21:08.681Z,17.77
2022-09-14T19:23:36.539Z,17.30
2022-09-14T19:26:08.698Z,16.83
2022-09-14T19:28:36.494Z,17.52
2022-09-14T19:31:12.358Z,17.23
2022-09-14T19:33:44.485Z,17.27
2022-09-14T19:36:20.030Z,17.55
2022-09-14T19:38:48.658Z,16.90
2022-09-14T19:41:17.001Z,17.50
2022-09-14T19:43:44.130Z,17.67
2022-09-14T19:46:17.318Z,17.88
2022-09-14T19:48:45.103Z,16.52
2022-09-14T19:51:15.366Z,19.65
2022-09-14T19:53:43.747Z,17.35
2022-09-14T19:56:12.763Z,18.70
2022-09-14T19:58:42.614Z,18.23
2022-09-14T20:01:10.877Z,17.75
2022-09-14T20:03:39.029Z,19.20
2022-09-14T20:06:12.689Z,20.33
2022-09-14T20:08:39.603Z,16.52
2022-09-14T20:11:17.741Z,16.52
2022-09-14T20:13:48.572Z,16.08
2022-09-14T20:16:19.122Z,15.00
2022-09-14T20:18:47.554Z,16.15
2022-09-14T20:21:17.145Z,14.82
2022-09-14T20:24:04.272Z,15.38
2022-09-14T20:26:32.167Z,15.27
2022-09-14T20:29:00.763Z,16.15
2022-09-14T20:31:30.184Z,15.77
2022-09-14T20:33:57.713Z,16.15
2022-09-14T20:36:25.598Z,15.63
2022-09-14T20:38:54.908Z,16.80
2022-09-14T20:41:24.332Z,16.27
2022-09-14T20:43:51.973Z,15.85
2022-09-14T20:46:22.159Z,17.48
2022-09-14T20:48:49.889Z,17.00
2022-09-14T20:51:20.667Z,16.95
2022-09-14T20:53:48.275Z,18.95
2022-09-14T20:56:23.054Z,18.90
2022-09-14T20:58:53.848Z,18.60
2022-09-14T21:01:23.429Z,19.00
2022-09-14T21:03:51.070Z,19.85
2022-09-14T21:06:20.998Z,21.85
2022-09-14T21:08:48.232Z,20.95
2022-09-14T21:11:24.014Z,21.70
2022-09-14T21:13:52.969Z,24.52
2022-09-14T21:16:22.399Z,22.85
2022-09-14T21:18:54.288Z,23.95
2022-09-14T21:21:22.029Z,22.40
2022-09-14T21:23:50.469Z,23.17
2022-09-14T21:26:19.409Z,23.63
2022-09-14T21:28:47.433Z,22.08
2022-09-14T21:31:20.653Z,23.00
2022-09-14T21:33:51.065Z,23.70
2022-09-14T21:36:21.660Z,23.10
2022-09-14T21:38:53.617Z,21.70
2022-09-14T21:41:22.217Z,22.35
2022-09-14T21:43:49.684Z,22.55
2022-09-14T21:46:17.387Z,22.77
2022-09-14T21:48:44.861Z,21.42
2022-09-14T21:51:24.134Z,22.92
2022-09-14T21:53:56.828Z,22.33
2022-09-14T21:56:26.930Z,22.98
2022-09-14T21:58:56.932Z,21.63
2022-09-14T22:01:24.862Z,23.15
2022-09-14T22:03:53.606Z,22.38
2022-09-14T22:06:24.046Z,23.20
2022-09-14T22:08:52.556Z,21.65
2022-09-14T22:11:23.412Z,21.63
2022-09-14T22:13:54.795Z,22.48
2022-09-14T22:16:23.249Z,21.10
2022-09-14T22:18:55.661Z,21.77
2022-09-14T22:21:24.331Z,21.73
2022-09-14T22:23:53.996Z,20.55
2022-09-14T22:26:21.626Z,20.92
2022-09-14T22:28:50.136Z,20.65
2022-09-14T22:31:19.411Z,20.65
2022-09-14T22:33:46.968Z,19.67
2022-09-14T22:36:15.154Z,19.92
2022-09-14T22:38:42.464Z,20.13
2022-09-14T22:41:12.142Z,17.63
2022-09-14T22:43:40.317Z,18.50
2022-09-14T22:46:08.759Z,17.08
2022-09-14T22:48:37.046Z,16.70
2022-09-14T22:51:07.080Z,16.77
2022-09-14T22:53:34.392Z,17.13
2022-09-14T22:56:11.417Z,16.35
2022-09-14T22:58:38.394Z,16.15
2022-09-14T23:01:07.758Z,16.38
2022-09-14T23:03:35.490Z,15.07
2022-09-14T23:06:03.816Z,14.93
2022-09-14T23:08:31.913Z,14.73
2022-09-14T23:11:03.663Z,14.82
2022-09-14T23:13:30.747Z,14.93
2022-09-14T23:15:57.664Z,15.00
2022-09-14T23:18:24.601Z,14.10
2022-09-14T23:20:51.561Z,13.55
2022-09-14T23:23:18.429Z,13.73
2022-09-14T23:25:45.343Z,13.45
2022-09-14T23:28:12.719Z,14.00
2022-09-14T23:30:39.861Z,14.38
2022-09-14T23:33:06.973Z,13.20
2022-09-14T23:35:37.615Z,13.70
2022-09-14T23:38:04.809Z,13.02
2022-09-14T23:40:31.772Z,12.90
2022-09-14T23:42:58.752Z,13.82
2022-09-14T23:45:25.612Z,13.68
2022-09-14T23:47:52.692Z,12.43
2022-09-14T23:50:19.773Z,12.77
2022-09-14T23:52:47.320Z,12.02
2022-09-14T23:55:14.720Z,12.63
2022-09-14T23:57:41.787Z,12.50
